< < Back
Terminal Aerodrome Forecast


Current Version              Previous Versions:   1  2  3  4  5  6  7  8  9  

Terminal Aerodrome Forecast

533
FTUS42 KGSP 190900 AAA
TAFGSP
TAF AMD
KGSP 190933Z 1910/2006 03006KT P6SM SCT050 BKN110
      TEMPO 1910/1913 04003KT 6SM BR BKN030
     FM191400 08005KT P6SM BKN050
     FM191800 10006KT P6SM BKN060
     FM192000 05005KT P6SM BKN070=



Latest METAR

253
SAUS70 KWBC 192200 RRA
MTRGSP
METAR KGSP 192153Z 09010KT 10SM SCT110 24/16 A3014 RMK AO2 SLP196
T02390156


USA.gov is the U.S. government's official web portal to all federal, state and local government web resources and services.